createdAt,value
2019-06-08T00:01:12.533Z,95022.45
2019-06-08T00:03:41.864Z,95023.39
2019-06-08T00:06:12.502Z,95023.13
2019-06-08T00:08:42.131Z,95023.33
2019-06-08T00:11:12.694Z,95025.66
2019-06-08T00:13:42.131Z,95026.34
2019-06-08T00:16:11.526Z,95025.09
2019-06-08T00:18:40.935Z,95024.20
2019-06-08T00:21:10.307Z,95029.62
2019-06-08T00:23:39.688Z,95025.51
2019-06-08T00:26:09.032Z,95027.80
2019-06-08T00:28:38.432Z,95024.00
2019-06-08T00:31:07.812Z,95020.33
2019-06-08T00:33:37.259Z,95017.23
2019-06-08T00:36:06.674Z,95014.83
2019-06-08T00:38:36.084Z,95015.98
2019-06-08T00:41:05.452Z,95008.87
2019-06-08T00:43:35.056Z,95010.71
2019-06-08T00:46:04.452Z,95011.13
2019-06-08T00:48:33.795Z,95007.70
2019-06-08T00:51:03.161Z,95009.27
2019-06-08T00:53:32.525Z,95010.75
2019-06-08T00:56:01.898Z,95010.69
2019-06-08T00:58:31.261Z,95003.07
2019-06-08T01:01:00.609Z,95006.47
2019-06-08T01:03:30.079Z,94996.02
2019-06-08T01:05:59.432Z,94990.88
2019-06-08T01:08:29.330Z,94996.38
2019-06-08T01:10:58.847Z,94995.88
2019-06-08T01:13:28.974Z,95005.82
2019-06-08T01:15:58.403Z,95008.98
2019-06-08T01:18:27.748Z,95010.16
2019-06-08T01:20:57.125Z,95005.42
2019-06-08T01:23:27.876Z,95007.84
2019-06-08T01:25:57.256Z,95005.95
2019-06-08T01:28:26.632Z,95008.70
2019-06-08T01:30:55.981Z,95011.22
2019-06-08T01:33:26.608Z,95008.19
2019-06-08T01:35:56.131Z,95004.64
2019-06-08T01:38:25.503Z,95011.43
2019-06-08T01:40:54.909Z,95012.13
2019-06-08T01:43:25.712Z,95010.94
2019-06-08T01:45:55.261Z,95015.06
2019-06-08T01:48:24.632Z,95010.81
2019-06-08T01:50:54.125Z,95009.14
2019-06-08T01:53:24.602Z,95011.48
2019-06-08T01:55:54.028Z,95018.16
2019-06-08T01:58:23.486Z,95015.77
2019-06-08T02:00:52.930Z,95017.45
2019-06-08T02:03:23.776Z,95025.55
2019-06-08T02:05:53.224Z,95023.34
2019-06-08T02:08:22.637Z,95028.98
2019-06-08T02:10:52.048Z,95027.38
2019-06-08T02:13:21.448Z,95022.42
2019-06-08T02:15:50.872Z,95017.08
2019-06-08T02:18:35.367Z,95016.77
2019-06-08T02:20:51.363Z,95014.14
2019-06-08T02:23:20.720Z,95009.48
2019-06-08T02:25:50.117Z,95007.67
2019-06-08T02:28:19.525Z,95020.14
2019-06-08T02:30:48.889Z,95014.98
2019-06-08T02:33:18.279Z,95014.70
2019-06-08T02:35:47.755Z,95011.47
2019-06-08T02:38:17.105Z,95012.88
2019-06-08T02:40:46.510Z,95008.95
2019-06-08T02:43:15.894Z,95015.11
2019-06-08T02:45:45.288Z,95016.74
2019-06-08T02:48:14.660Z,95023.09
2019-06-08T02:50:55.391Z,95023.51
2019-06-08T02:53:25.756Z,95025.83
2019-06-08T02:55:55.850Z,95023.20
2019-06-08T02:58:25.725Z,95020.96
2019-06-08T03:00:56.247Z,95024.72
2019-06-08T03:03:27.327Z,95026.93
2019-06-08T03:05:59.667Z,95034.70
2019-06-08T03:08:32.291Z,95035.41
2019-06-08T03:11:03.909Z,95041.58
2019-06-08T03:13:35.654Z,95029.05
2019-06-08T03:16:05.491Z,95032.66
2019-06-08T03:18:35.875Z,95029.24
2019-06-08T03:21:05.803Z,95029.24
2019-06-08T03:23:36.281Z,95029.66
2019-06-08T03:26:05.869Z,95030.75
2019-06-08T03:28:37.145Z,95029.03
2019-06-08T03:31:06.390Z,95031.74
2019-06-08T03:33:40.051Z,95027.08
2019-06-08T03:36:06.815Z,95035.80
2019-06-08T03:38:37.505Z,95041.73
2019-06-08T03:41:07.131Z,95044.88
2019-06-08T03:43:37.599Z,95041.83
2019-06-08T03:46:07.635Z,95040.31
2019-06-08T03:48:37.855Z,95039.09
2019-06-08T03:51:08.109Z,95044.11
2019-06-08T03:53:38.370Z,95048.36
2019-06-08T03:56:08.562Z,95051.08
2019-06-08T03:58:38.523Z,95051.08
2019-06-08T04:01:09.101Z,95054.63
2019-06-08T04:03:39.948Z,95059.25
2019-06-08T04:06:09.656Z,95057.45
2019-06-08T04:08:40.902Z,95059.38
2019-06-08T04:11:10.253Z,95060.17
2019-06-08T04:13:39.907Z,95060.36
2019-06-08T04:16:09.544Z,95059.23
2019-06-08T04:18:40.271Z,95059.28
2019-06-08T04:21:09.967Z,95055.55
2019-06-08T04:23:40.571Z,95049.06
2019-06-08T04:26:10.529Z,95049.55
2019-06-08T04:28:40.553Z,95052.88
2019-06-08T04:31:10.102Z,95055.17
2019-06-08T04:33:40.238Z,95054.42
2019-06-08T04:36:10.524Z,95052.70
2019-06-08T04:38:41.317Z,95055.42
2019-06-08T04:41:11.175Z,95063.84
2019-06-08T04:43:42.863Z,95060.47
2019-06-08T04:46:13.006Z,95065.06
2019-06-08T04:48:43.015Z,95061.01
2019-06-08T04:51:13.481Z,95059.23
2019-06-08T04:53:43.661Z,95062.49
2019-06-08T04:56:14.005Z,95058.30
2019-06-08T04:58:46.006Z,95063.33
2019-06-08T05:01:14.564Z,95061.92
2019-06-08T05:03:45.579Z,95060.72
2019-06-08T05:06:15.069Z,95063.05
2019-06-08T05:08:45.231Z,95064.77
2019-06-08T05:11:14.902Z,95066.32
2019-06-08T05:13:45.368Z,95063.51
2019-06-08T05:16:14.791Z,95060.80
2019-06-08T05:18:45.287Z,95062.58
2019-06-08T05:21:14.843Z,95064.84
2019-06-08T05:23:45.548Z,95071.47
2019-06-08T05:26:15.284Z,95075.31
2019-06-08T05:28:45.261Z,95074.66
2019-06-08T05:31:14.720Z,95072.17
2019-06-08T05:33:45.467Z,95069.02
2019-06-08T05:36:14.989Z,95072.03
2019-06-08T05:38:45.617Z,95074.66
2019-06-08T05:41:15.151Z,95077.02
2019-06-08T05:43:45.619Z,95080.74
2019-06-08T05:46:15.085Z,95082.66
2019-06-08T05:48:45.807Z,95079.27
2019-06-08T05:51:15.362Z,95089.17
2019-06-08T05:53:45.760Z,95086.67
2019-06-08T05:56:17.454Z,95089.30
2019-06-08T05:58:48.048Z,95095.31
2019-06-08T06:01:17.461Z,95097.50
2019-06-08T06:03:46.873Z,95098.59
2019-06-08T06:06:16.239Z,95105.40
2019-06-08T06:08:46.608Z,95098.46
2019-06-08T06:11:16.034Z,95097.11
2019-06-08T06:13:45.405Z,95101.69
2019-06-08T06:16:14.827Z,95102.68
2019-06-08T06:18:44.987Z,95104.05
2019-06-08T06:21:14.779Z,95108.22
2019-06-08T06:23:45.220Z,95109.52
2019-06-08T06:26:14.824Z,95107.95
2019-06-08T06:28:45.629Z,95096.48
2019-06-08T06:31:14.984Z,95103.69
2019-06-08T06:33:45.903Z,95107.92
2019-06-08T06:36:15.395Z,95105.28
2019-06-08T06:38:45.901Z,95111.05
2019-06-08T06:41:16.146Z,95107.86
2019-06-08T06:43:45.844Z,95107.82
2019-06-08T06:46:15.826Z,95107.86
2019-06-08T06:48:46.125Z,95102.14
2019-06-08T06:51:25.597Z,95102.33
2019-06-08T06:56:15.913Z,95100.68
2019-06-08T06:58:45.323Z,95106.50
2019-06-08T07:01:14.759Z,95104.75
2019-06-08T07:03:44.280Z,95096.30
2019-06-08T07:06:15.420Z,95097.08
2019-06-08T07:08:46.185Z,95102.47
2019-06-08T07:11:15.559Z,95098.11
2019-06-08T07:13:44.957Z,95098.92
2019-06-08T07:16:18.314Z,95100.39
2019-06-08T07:18:46.176Z,95101.56
2019-06-08T07:21:15.658Z,95102.83
2019-06-08T07:23:46.258Z,95100.06
2019-06-08T07:26:15.710Z,95095.83
2019-06-08T07:28:46.218Z,95099.02
2019-06-08T07:31:16.185Z,95092.83
2019-06-08T07:33:46.779Z,95090.33
2019-06-08T07:36:16.795Z,95087.53
2019-06-08T07:38:47.023Z,95084.59
2019-06-08T07:41:17.674Z,95083.05
2019-06-08T07:43:47.987Z,95084.55
2019-06-08T07:46:18.095Z,95077.50
2019-06-08T07:48:48.108Z,95079.20
2019-06-08T07:51:17.674Z,95075.57
2019-06-08T07:53:48.089Z,95072.47
2019-06-08T07:56:17.903Z,95076.03
2019-06-08T07:58:49.542Z,95077.22
2019-06-08T08:01:18.396Z,95079.09
2019-06-08T08:03:47.995Z,95081.16
2019-06-08T08:06:17.327Z,95086.58
2019-06-08T08:08:46.710Z,95078.65
2019-06-08T08:11:16.077Z,95082.25
2019-06-08T08:13:45.468Z,95081.03
2019-06-08T08:16:14.825Z,95080.70
2019-06-08T08:18:44.199Z,95085.34
2019-06-08T08:21:22.134Z,95084.63
2019-06-08T08:23:44.755Z,95079.88
2019-06-08T08:26:14.165Z,95079.39
2019-06-08T08:28:43.577Z,95080.29
2019-06-08T08:31:15.251Z,95072.90
2019-06-08T08:33:44.116Z,95068.91
2019-06-08T08:36:13.480Z,95068.51
2019-06-08T08:38:42.862Z,95068.56
2019-06-08T08:41:12.236Z,95060.62
2019-06-08T08:43:41.585Z,95060.90
2019-06-08T08:46:11.028Z,95066.28
2019-06-08T08:48:40.464Z,95068.50
2019-06-08T08:51:09.809Z,95060.80
2019-06-08T08:53:39.285Z,95070.14
2019-06-08T08:56:08.660Z,95064.02
2019-06-08T08:58:38.188Z,95059.25
2019-06-08T09:01:08.230Z,95053.36
2019-06-08T09:03:39.610Z,95054.41
2019-06-08T09:06:08.887Z,95059.22
2019-06-08T09:08:38.263Z,95060.55
2019-06-08T09:11:08.306Z,95060.03
2019-06-08T09:13:37.866Z,95064.59
2019-06-08T09:16:08.133Z,95062.16
2019-06-08T09:18:37.765Z,95046.94
2019-06-08T09:21:08.429Z,95052.29
2019-06-08T09:23:38.066Z,95043.20
2019-06-08T09:26:12.434Z,95045.57
2019-06-08T09:28:38.990Z,95049.88
2019-06-08T09:31:10.386Z,95058.14
2019-06-08T09:33:39.649Z,95049.56
2019-06-08T09:36:09.072Z,95056.18
2019-06-08T09:38:39.072Z,95052.41
2019-06-08T09:41:09.098Z,95056.16
2019-06-08T09:43:38.958Z,95052.16
2019-06-08T09:46:09.413Z,95049.16
2019-06-08T09:48:39.105Z,95042.38
2019-06-08T09:51:09.268Z,95048.90
2019-06-08T09:53:41.638Z,95050.55
2019-06-08T09:56:10.482Z,95046.73
2019-06-08T09:58:40.163Z,95057.41
2019-06-08T10:01:12.346Z,95050.98
2019-06-08T10:03:40.647Z,95046.14
2019-06-08T10:06:12.297Z,95049.85
2019-06-08T10:08:41.148Z,95044.70
2019-06-08T10:11:10.534Z,95043.88
2019-06-08T10:13:43.280Z,95047.76
2019-06-08T10:16:11.120Z,95048.27
2019-06-08T10:18:40.581Z,95047.01
2019-06-08T10:21:10.243Z,95040.30
2019-06-08T10:23:41.748Z,95043.70
2019-06-08T10:26:11.557Z,95042.91
2019-06-08T10:28:40.916Z,95037.25
2019-06-08T10:31:10.411Z,95042.02
2019-06-08T10:33:40.536Z,95039.88
2019-06-08T10:36:12.904Z,95032.55
2019-06-08T10:38:41.614Z,95036.56
2019-06-08T10:41:17.772Z,95040.56
2019-06-08T10:43:42.263Z,95031.86
2019-06-08T10:46:16.555Z,95022.20
2019-06-08T10:48:42.755Z,95025.38
2019-06-08T10:51:13.053Z,95014.60
2019-06-08T10:53:49.031Z,95006.12
2019-06-08T10:56:13.889Z,95024.42
2019-06-08T10:58:43.399Z,95000.02
2019-06-08T11:01:13.467Z,95012.28
2019-06-08T11:03:43.190Z,95009.66
2019-06-08T11:06:13.420Z,95000.94
2019-06-08T11:08:43.158Z,95017.30
2019-06-08T11:11:19.446Z,95003.06
2019-06-08T11:13:50.160Z,95009.58
2019-06-08T11:16:18.365Z,95009.66
2019-06-08T11:18:48.826Z,95004.06
2019-06-08T11:21:19.106Z,94998.53
2019-06-08T11:24:04.578Z,95010.73
2019-06-08T11:26:24.274Z,94996.03
2019-06-08T11:28:51.388Z,95007.88
2019-06-08T11:31:20.816Z,95005.89
2019-06-08T11:33:50.177Z,94999.22
2019-06-08T11:36:19.608Z,94991.91
2019-06-08T11:38:49.044Z,94985.13
2019-06-08T11:41:22.594Z,94986.97
2019-06-08T11:43:49.590Z,94973.28
2019-06-08T11:46:21.779Z,94994.58
2019-06-08T11:48:50.153Z,94993.00
2019-06-08T11:51:19.535Z,94996.48
2019-06-08T11:53:51.980Z,94989.76
2019-06-08T11:56:20.109Z,94986.77
2019-06-08T11:58:49.679Z,94978.19
2019-06-08T12:01:19.111Z,94976.23
2019-06-08T12:03:48.503Z,94980.66
2019-06-08T12:06:18.597Z,94977.66
2019-06-08T12:08:48.119Z,94999.19
2019-06-08T12:11:19.744Z,94981.65
2019-06-08T12:13:48.634Z,94989.86
2019-06-08T12:16:21.925Z,94972.68
2019-06-08T12:18:49.476Z,94968.49
2019-06-08T12:21:18.959Z,94968.35
2019-06-08T12:23:48.379Z,94973.36
2019-06-08T12:26:17.770Z,94964.69
2019-06-08T12:28:48.642Z,94964.44
2019-06-08T12:31:22.255Z,94972.58
2019-06-08T12:33:49.370Z,94977.91
2019-06-08T12:36:20.693Z,94970.73
2019-06-08T12:38:49.923Z,94963.43
2019-06-08T12:41:19.477Z,94962.03
2019-06-08T12:43:48.911Z,94968.80
2019-06-08T12:46:20.885Z,94958.69
2019-06-08T12:48:49.397Z,94963.22
2019-06-08T12:51:19.952Z,94978.09
2019-06-08T12:53:49.877Z,94962.84
2019-06-08T12:56:23.819Z,94962.00
2019-06-08T12:58:50.337Z,94970.91
2019-06-08T13:01:19.731Z,94961.09
2019-06-08T13:03:49.096Z,94967.88
2019-06-08T13:06:19.944Z,94964.38
2019-06-08T13:08:49.524Z,94954.30
2019-06-08T13:11:21.114Z,94957.25
2019-06-08T13:13:50.039Z,94959.72
2019-06-08T13:16:23.639Z,94956.66
2019-06-08T13:18:50.589Z,94969.38
2019-06-08T13:21:33.281Z,94955.58
2019-06-08T13:23:51.089Z,94945.66
2019-06-08T13:26:27.446Z,94951.48
2019-06-08T13:28:51.557Z,94943.98
2019-06-08T13:31:24.201Z,94938.14
2019-06-08T13:33:52.062Z,94940.02
2019-06-08T13:36:26.043Z,94941.27
2019-06-08T13:38:52.579Z,94938.95
2019-06-08T13:41:25.952Z,94940.50
2019-06-08T13:43:53.319Z,94940.48
2019-06-08T13:46:23.722Z,94942.17
2019-06-08T13:48:53.223Z,94945.34
2019-06-08T13:51:24.110Z,94948.75
2019-06-08T13:53:53.667Z,94937.12
2019-06-08T13:56:24.061Z,94942.55
2019-06-08T13:58:53.515Z,94949.06
2019-06-08T14:01:23.782Z,94949.31
2019-06-08T14:03:53.732Z,94937.08
2019-06-08T14:06:23.751Z,94936.78
2019-06-08T14:08:54.405Z,94931.84
2019-06-08T14:11:25.044Z,94930.22
2019-06-08T14:13:54.921Z,94946.81
2019-06-08T14:16:25.347Z,94935.39
2019-06-08T14:18:55.481Z,94936.42
2019-06-08T14:21:36.707Z,94934.11
2019-06-08T14:23:55.970Z,94939.79
2019-06-08T14:26:25.967Z,94932.22
2019-06-08T14:28:55.407Z,94950.53
2019-06-08T14:31:25.592Z,94945.17
2019-06-08T14:33:56.030Z,94934.02
2019-06-08T14:36:26.672Z,94945.62
2019-06-08T14:39:02.048Z,94929.71
2019-06-08T14:41:31.172Z,94921.64
2019-06-08T14:43:58.737Z,94928.09
2019-06-08T14:46:28.749Z,94940.92
2019-06-08T14:48:58.737Z,94927.20
2019-06-08T14:51:47.791Z,94929.78
2019-06-08T14:54:20.860Z,94926.19
2019-06-08T14:56:48.823Z,94914.40
2019-06-08T14:59:20.145Z,94920.06
2019-06-08T15:01:49.513Z,94908.14
2019-06-08T15:04:23.175Z,94926.89
2019-06-08T15:06:50.043Z,94930.55
2019-06-08T15:09:19.525Z,94920.04
2019-06-08T15:11:49.000Z,94922.91
2019-06-08T15:14:22.153Z,94915.40
2019-06-08T15:16:51.607Z,94918.61
2019-06-08T15:19:22.119Z,94928.25
2019-06-08T15:21:51.614Z,94920.31
2019-06-08T15:24:21.027Z,94922.27
2019-06-08T15:26:50.381Z,94914.38
2019-06-08T15:29:20.802Z,94902.05
2019-06-08T15:31:50.286Z,94928.19
2019-06-08T15:34:21.135Z,94918.53
2019-06-08T15:36:50.671Z,94912.70
2019-06-08T15:39:21.643Z,94919.13
2019-06-08T15:41:51.230Z,94914.08
2019-06-08T15:44:22.654Z,94910.69
2019-06-08T15:46:51.701Z,94916.51
2019-06-08T15:49:22.170Z,94907.02
2019-06-08T15:51:51.842Z,94914.45
2019-06-08T15:54:22.559Z,94910.78
2019-06-08T15:56:52.411Z,94917.41
2019-06-08T15:59:23.148Z,94908.55
2019-06-08T16:01:52.538Z,94904.48
2019-06-08T16:04:23.336Z,94906.05
2019-06-08T16:06:52.951Z,94900.63
2019-06-08T16:09:23.883Z,94907.58
2019-06-08T16:11:53.409Z,94935.84
2019-06-08T16:14:22.780Z,94928.25
2019-06-08T16:16:52.187Z,94920.39
2019-06-08T16:19:21.626Z,94919.78
2019-06-08T16:21:51.100Z,94924.37
2019-06-08T16:24:20.488Z,94910.03
2019-06-08T16:26:53.184Z,94911.94
2019-06-08T16:29:21.058Z,94912.51
2019-06-08T16:31:50.433Z,94912.94
2019-06-08T16:34:19.825Z,94908.30
2019-06-08T16:36:49.252Z,94912.06
2019-06-08T16:39:18.648Z,94926.22
2019-06-08T16:41:48.016Z,94911.84
2019-06-08T16:44:17.469Z,94918.55
2019-06-08T16:46:46.913Z,94917.66
2019-06-08T16:49:16.345Z,94914.41
2019-06-08T16:51:45.770Z,94923.86
2019-06-08T16:54:15.169Z,94916.47
2019-06-08T16:56:44.542Z,94928.11
2019-06-08T16:59:13.933Z,94917.16
2019-06-08T17:01:43.309Z,94921.83
2019-06-08T17:04:12.713Z,94918.04
2019-06-08T17:06:44.227Z,94932.00
2019-06-08T17:09:13.999Z,94933.86
2019-06-08T17:11:43.424Z,94934.98
2019-06-08T17:14:12.863Z,94946.11
2019-06-08T17:16:42.189Z,94932.59
2019-06-08T17:19:11.672Z,94932.95
2019-06-08T17:21:41.104Z,94934.29
2019-06-08T17:24:10.458Z,94941.12
2019-06-08T17:26:40.766Z,94941.70
2019-06-08T17:29:10.543Z,94960.70
2019-06-08T17:31:41.299Z,94940.50
2019-06-08T17:34:10.830Z,94934.92
2019-06-08T17:36:40.714Z,94938.73
2019-06-08T17:39:10.199Z,94923.86
2019-06-08T17:41:40.170Z,94924.16
2019-06-08T17:44:09.674Z,94932.16
2019-06-08T17:46:41.067Z,94925.52
2019-06-08T17:49:10.234Z,94930.84
2019-06-08T17:51:41.674Z,94933.76
2019-06-08T17:54:10.898Z,94934.33
2019-06-08T17:56:41.253Z,94929.79
2019-06-08T17:59:10.782Z,94924.47
2019-06-08T18:01:41.652Z,94928.48
2019-06-08T18:04:11.180Z,94929.55
2019-06-08T18:06:41.805Z,94925.00
2019-06-08T18:09:11.645Z,94936.45
2019-06-08T18:11:43.530Z,94935.63
2019-06-08T18:14:13.513Z,94936.96
2019-06-08T18:16:44.058Z,94938.83
2019-06-08T18:19:28.476Z,94945.48
2019-06-08T18:22:04.373Z,94931.32
2019-06-08T18:24:29.367Z,94936.63
2019-06-08T18:26:59.782Z,94937.40
2019-06-08T18:29:29.234Z,94945.34
2019-06-08T18:31:58.628Z,94951.99
2019-06-08T18:34:28.737Z,94957.31
2019-06-08T18:36:58.350Z,94959.96
2019-06-08T18:39:30.477Z,94971.15
2019-06-08T18:42:01.304Z,94978.58
2019-06-08T18:44:30.982Z,94987.11
2019-06-08T18:47:00.331Z,94999.11
2019-06-08T18:49:29.713Z,95001.48
2019-06-08T18:51:59.386Z,95010.23
2019-06-08T18:54:28.900Z,95023.27
2019-06-08T18:56:58.279Z,95024.36
2019-06-08T18:59:28.675Z,95024.30
2019-06-08T19:01:58.205Z,95026.67
2019-06-08T19:04:30.943Z,95034.08
2019-06-08T19:07:01.926Z,95031.41
2019-06-08T19:09:32.475Z,95037.25
2019-06-08T19:12:02.043Z,95037.42
2019-06-08T19:14:31.454Z,95040.09
2019-06-08T19:17:00.900Z,95030.18
2019-06-08T19:19:31.485Z,95027.70
2019-06-08T19:22:01.168Z,95043.66
2019-06-08T19:24:30.555Z,95041.00
2019-06-08T19:27:00.028Z,95051.07
2019-06-08T19:29:29.494Z,95047.29
2019-06-08T19:32:00.482Z,95048.06
2019-06-08T19:34:33.182Z,95049.95
2019-06-08T19:37:01.151Z,95056.09
2019-06-08T19:39:32.006Z,95058.47
2019-06-08T19:42:01.380Z,95060.61
2019-06-08T19:44:30.922Z,95063.29
2019-06-08T19:47:00.308Z,95072.56
2019-06-08T19:49:30.044Z,95069.65
2019-06-08T19:51:59.692Z,95071.00
2019-06-08T19:54:29.073Z,95071.23
2019-06-08T19:57:00.678Z,95076.26
2019-06-08T19:59:30.035Z,95076.74
2019-06-08T20:01:59.998Z,95072.47
2019-06-08T20:04:29.578Z,95064.73
2019-06-08T20:07:00.704Z,95064.13
2019-06-08T20:09:30.239Z,95064.08
2019-06-08T20:12:00.307Z,95073.08
2019-06-08T20:14:29.840Z,95073.56
2019-06-08T20:16:59.240Z,95072.49
2019-06-08T20:19:29.220Z,95075.86
2019-06-08T20:21:58.618Z,95072.33
2019-06-08T20:24:28.284Z,95075.19
2019-06-08T20:26:57.777Z,95076.48
2019-06-08T20:29:28.220Z,95075.08
2019-06-08T20:31:58.522Z,95075.87
2019-06-08T20:34:28.166Z,95084.60
2019-06-08T20:37:01.442Z,95084.00
2019-06-08T20:39:29.657Z,95074.96
2019-06-08T20:41:59.059Z,95069.81
2019-06-08T20:44:30.310Z,95073.91
2019-06-08T20:46:59.931Z,95071.55
2019-06-08T20:49:29.415Z,95068.80
2019-06-08T20:52:00.448Z,95065.12
2019-06-08T20:54:30.042Z,95070.47
2019-06-08T20:56:59.651Z,95072.02
2019-06-08T20:59:33.199Z,95063.20
2019-06-08T21:02:00.173Z,95070.01
2019-06-08T21:04:29.580Z,95071.02
2019-06-08T21:06:59.005Z,95073.55
2019-06-08T21:09:28.420Z,95075.86
2019-06-08T21:11:58.813Z,95077.59
2019-06-08T21:14:28.483Z,95087.79
2019-06-08T21:16:58.584Z,95086.64
2019-06-08T21:19:28.408Z,95087.43
2019-06-08T21:21:59.203Z,95093.24
2019-06-08T21:24:28.953Z,95090.48
2019-06-08T21:27:00.606Z,95080.04
2019-06-08T21:29:46.914Z,95078.96
2019-06-08T21:32:02.687Z,95081.33
2019-06-08T21:34:31.673Z,95076.20
2019-06-08T21:37:01.198Z,95078.23
2019-06-08T21:39:30.587Z,95081.64
2019-06-08T21:42:03.053Z,95082.42
2019-06-08T21:44:31.088Z,95078.63
2019-06-08T21:47:01.595Z,95080.45
2019-06-08T21:49:31.174Z,95074.85
2019-06-08T21:52:01.274Z,95076.55
2019-06-08T21:54:30.977Z,95075.45
2019-06-08T21:57:01.147Z,95075.41
2019-06-08T21:59:30.630Z,95073.78
2019-06-08T22:02:03.129Z,95041.86
2019-06-08T22:04:31.170Z,95076.77
2019-06-08T22:07:01.621Z,95070.15
2019-06-08T22:09:31.747Z,95070.02
2019-06-08T22:12:01.165Z,95068.32
2019-06-08T22:14:30.573Z,95066.92
2019-06-08T22:17:01.445Z,95064.39
2019-06-08T22:19:31.071Z,95071.30
2019-06-08T22:22:02.013Z,95065.62
2019-06-08T22:24:31.672Z,95062.43
2019-06-08T22:27:01.945Z,95058.16
2019-06-08T22:29:31.410Z,95059.49
2019-06-08T22:32:00.851Z,95061.52
2019-06-08T22:34:30.267Z,95059.31
2019-06-08T22:37:00.444Z,95059.97
2019-06-08T22:39:30.006Z,95061.01
2019-06-08T22:42:01.232Z,95054.25
2019-06-08T22:44:30.525Z,95055.52
2019-06-08T22:47:01.582Z,95064.75
2019-06-08T22:49:31.109Z,95061.67
2019-06-08T22:52:01.354Z,95062.16
2019-06-08T22:54:31.594Z,95063.23
2019-06-08T22:57:02.999Z,95068.73
2019-06-08T22:59:32.118Z,95069.34
2019-06-08T23:02:04.087Z,95071.45
2019-06-08T23:04:32.631Z,95066.48
2019-06-08T23:07:04.534Z,95071.15
2019-06-08T23:09:33.088Z,95074.34
2019-06-08T23:12:04.653Z,95077.29
2019-06-08T23:14:33.577Z,95079.55
2019-06-08T23:17:03.997Z,95081.16
2019-06-08T23:19:34.086Z,95082.63
2019-06-08T23:22:04.033Z,95083.13
2019-06-08T23:24:33.544Z,95077.23
2019-06-08T23:27:04.164Z,95078.66
2019-06-08T23:32:04.376Z,95077.23
2019-06-08T23:34:33.115Z,95070.87
2019-06-08T23:37:05.684Z,95071.74
2019-06-08T23:39:33.661Z,95073.16
2019-06-08T23:42:03.732Z,95064.09
2019-06-08T23:44:33.212Z,95065.31
2019-06-08T23:47:03.207Z,95069.05
2019-06-08T23:49:33.833Z,95066.98
2019-06-08T23:52:04.331Z,95062.72
2019-06-08T23:54:37.055Z,95060.55
2019-06-08T23:57:09.194Z,95066.59
2019-06-08T23:59:37.736Z,95067.67
